Time;durP1;ratioP1;P1;durP2;ratioP2;P2;SDS_P1;SDS_P2;PMS_P1;PMS_P2;Temp;Humidity;BMP_temperature;BMP_pressure;BME280_temperature;BME280_humidity;BME280_pressure;Samples;Min_cycle;Max_cycle;Signal;HPM_P1;HPM_P2
2021/07/22 00:01:34;;;;;;;15.70;8.80;;;15.60;1.00;;;;;;5032824;28;20210;-62
2021/07/22 00:04:01;;;;;;;13.47;9.23;;;15.60;1.00;;;;;;5032572;28;20206;-62
2021/07/22 00:06:28;;;;;;;14.13;9.00;;;15.70;1.00;;;;;;5032906;28;20212;-62
2021/07/22 00:08:56;;;;;;;15.80;9.90;;;15.70;1.00;;;;;;5032620;28;20230;-62
2021/07/22 00:11:22;;;;;;;20.87;9.70;;;15.70;1.00;;;;;;5032755;28;20214;-62
2021/07/22 00:13:49;;;;;;;15.37;9.90;;;15.70;1.00;;;;;;5032567;28;20206;-62
2021/07/22 00:16:16;;;;;;;13.23;9.27;;;15.80;1.00;;;;;;5032487;28;20256;-62
2021/07/22 00:18:43;;;;;;;13.83;8.70;;;15.80;1.00;;;;;;5032651;28;20284;-62
2021/07/22 00:21:10;;;;;;;15.37;9.67;;;15.80;1.00;;;;;;5032420;28;20826;-62
2021/07/22 00:23:36;;;;;;;14.57;9.20;;;15.80;1.00;;;;;;5032350;28;20222;-62
2021/07/22 00:26:05;;;;;;;14.53;9.47;;;15.80;1.00;;;;;;5032258;28;20230;-62
2021/07/22 00:28:32;;;;;;;15.60;9.03;;;15.90;1.00;;;;;;5031874;28;20237;-62
2021/07/22 00:30:59;;;;;;;16.10;9.20;;;15.90;1.00;;;;;;5032413;28;20646;-62
2021/07/22 00:33:26;;;;;;;12.23;8.73;;;16.00;1.00;;;;;;5032322;28;20206;-62
2021/07/22 00:35:53;;;;;;;12.67;8.57;;;16.00;1.00;;;;;;5032230;28;20218;-62
2021/07/22 00:38:19;;;;;;;12.83;8.33;;;16.00;1.00;;;;;;5032436;28;20273;-62
2021/07/22 00:40:46;;;;;;;13.50;9.37;;;16.00;1.00;;;;;;5032298;28;20268;-62
2021/07/22 00:43:14;;;;;;;13.47;9.13;;;16.00;1.00;;;;;;5032089;28;20276;-62
2021/07/22 00:45:41;;;;;;;13.57;8.83;;;16.00;1.00;;;;;;5031812;28;20222;-62
2021/07/22 00:48:07;;;;;;;13.10;8.60;;;16.00;1.00;;;;;;5031920;28;20292;-62
2021/07/22 00:50:34;;;;;;;14.17;9.50;;;16.00;1.00;;;;;;5032353;28;20206;-62
2021/07/22 00:53:01;;;;;;;13.10;9.03;;;16.00;1.00;;;;;;5031933;28;20210;-62
2021/07/22 00:55:29;;;;;;;13.67;9.83;;;16.00;1.00;;;;;;5031797;28;20252;-62
2021/07/22 00:57:55;;;;;;;11.43;8.77;;;16.00;1.00;;;;;;5031896;28;20230;-62
2021/07/22 01:00:24;;;;;;;14.00;9.30;;;16.00;1.00;;;;;;5031891;28;20210;-62
2021/07/22 01:02:50;;;;;;;16.10;9.97;;;16.10;1.00;;;;;;5032142;28;20248;-62
2021/07/22 01:05:17;;;;;;;13.70;9.33;;;16.00;1.00;;;;;;5031834;28;20226;-62
2021/07/22 01:07:43;;;;;;;15.83;9.10;;;16.10;1.00;;;;;;5031940;28;20261;-62
2021/07/22 01:10:11;;;;;;;13.60;9.17;;;16.20;1.00;;;;;;5032527;28;20232;-63
2021/07/22 01:12:37;;;;;;;13.50;8.97;;;16.20;1.00;;;;;;5032639;28;20206;-62
2021/07/22 01:15:05;;;;;;;11.80;8.13;;;16.30;1.00;;;;;;5032026;28;20280;-61
2021/07/22 01:17:41;;;;;;;16.10;9.30;;;16.40;1.00;;;;;;5031786;28;20234;-63
2021/07/22 01:20:14;;;;;;;14.93;8.37;;;16.40;1.00;;;;;;5032445;28;20212;-62
2021/07/22 01:22:41;;;;;;;11.70;8.17;;;16.40;1.00;;;;;;5032086;28;20603;-63
2021/07/22 01:25:09;;;;;;;13.60;8.40;;;16.40;1.00;;;;;;5031664;28;20646;-63
2021/07/22 01:27:36;;;;;;;10.90;7.80;;;16.50;1.00;;;;;;5031795;28;20231;-62
2021/07/22 01:30:03;;;;;;;14.30;8.73;;;16.50;1.00;;;;;;5031654;28;20835;-62
2021/07/22 01:32:29;;;;;;;12.87;8.33;;;16.50;99.90;;;;;;5031756;28;20729;-63
2021/07/22 01:34:56;;;;;;;11.23;7.73;;;16.50;99.90;;;;;;5031329;28;20202;-63
2021/07/22 01:37:24;;;;;;;10.53;8.17;;;16.60;99.90;;;;;;5031376;28;20240;-62
2021/07/22 01:39:51;;;;;;;12.63;8.23;;;16.60;99.90;;;;;;5031836;28;20630;-62
2021/07/22 01:42:17;;;;;;;12.90;7.80;;;16.60;99.90;;;;;;5035374;28;20256;-62
2021/07/22 01:44:44;;;;;;;12.23;8.37;;;16.60;99.90;;;;;;5035194;28;20214;-62
2021/07/22 01:47:11;;;;;;;15.73;7.80;;;16.60;99.90;;;;;;5035346;28;20217;-62
2021/07/22 01:49:38;;;;;;;11.87;8.80;;;16.60;99.90;;;;;;5035251;28;20237;-62
2021/07/22 01:52:06;;;;;;;11.87;8.60;;;16.60;99.90;;;;;;5035246;28;20268;-62
2021/07/22 01:54:34;;;;;;;11.37;7.93;;;16.60;99.90;;;;;;5035236;28;20214;-62
2021/07/22 01:57:01;;;;;;;11.90;7.57;;;16.60;99.90;;;;;;5035265;28;20268;-62
2021/07/22 01:59:35;;;;;;;11.33;7.70;;;16.60;99.90;;;;;;5035076;28;20772;-62
2021/07/22 02:02:02;;;;;;;13.17;8.10;;;16.60;99.90;;;;;;5035050;28;20238;-62
2021/07/22 02:04:29;;;;;;;11.70;8.10;;;16.50;99.90;;;;;;5034716;28;20210;-63
2021/07/22 02:06:55;;;;;;;13.27;8.40;;;16.40;99.90;;;;;;5035102;28;20280;-63
2021/07/22 02:09:22;;;;;;;10.97;7.53;;;16.40;99.90;;;;;;5034922;28;20714;-62
2021/07/22 02:11:51;;;;;;;12.73;8.57;;;16.40;99.90;;;;;;5034875;28;20694;-62
2021/07/22 02:14:17;;;;;;;11.73;8.43;;;16.40;99.90;;;;;;5034465;28;20214;-63
2021/07/22 02:16:44;;;;;;;12.47;7.70;;;16.40;99.90;;;;;;5034760;28;20209;-62
2021/07/22 02:19:10;;;;;;;13.63;7.90;;;16.30;99.90;;;;;;5034819;28;20710;-62
2021/07/22 02:21:38;;;;;;;12.47;8.57;;;16.30;99.90;;;;;;5034966;28;20634;-62
2021/07/22 02:24:05;;;;;;;10.00;8.03;;;16.30;99.90;;;;;;5034514;28;20210;-62
2021/07/22 02:26:31;;;;;;;12.17;8.27;;;16.30;99.90;;;;;;5034572;28;20222;-62
2021/07/22 02:28:59;;;;;;;11.27;7.87;;;16.30;99.90;;;;;;5034443;28;20222;-62
2021/07/22 02:31:26;;;;;;;12.70;7.93;;;16.30;99.90;;;;;;5034440;28;20611;-62
2021/07/22 02:33:53;;;;;;;12.83;7.80;;;16.30;99.90;;;;;;5034258;28;20667;-62
2021/07/22 02:36:20;;;;;;;10.00;7.60;;;16.20;99.90;;;;;;5034511;28;20198;-62
2021/07/22 02:38:47;;;;;;;9.43;7.27;;;16.20;99.90;;;;;;5034480;28;20260;-62
2021/07/22 02:41:13;;;;;;;10.60;7.93;;;16.20;99.90;;;;;;5034271;28;20206;-62
2021/07/22 02:43:41;;;;;;;10.73;7.20;;;16.20;99.90;;;;;;5034323;28;20206;-62
2021/07/22 02:46:11;;;;;;;9.43;7.33;;;16.20;99.90;;;;;;5033899;28;20280;-62
2021/07/22 02:48:38;;;;;;;10.33;7.40;;;16.20;99.90;;;;;;5034090;28;20292;-62
2021/07/22 02:51:05;;;;;;;11.43;7.77;;;16.20;99.90;;;;;;5034055;28;20222;-62
2021/07/22 02:53:32;;;;;;;11.93;8.17;;;16.20;99.90;;;;;;5034051;28;20333;-62
2021/07/22 02:56:00;;;;;;;10.73;7.67;;;16.10;99.90;;;;;;5033970;28;20203;-62
2021/07/22 02:58:26;;;;;;;16.10;8.13;;;16.10;99.90;;;;;;5033799;28;20348;-62
2021/07/22 03:00:54;;;;;;;13.70;8.07;;;16.10;99.90;;;;;;5033806;28;20261;-62
2021/07/22 03:03:22;;;;;;;12.47;7.30;;;16.10;99.90;;;;;;5033817;28;20207;-62
2021/07/22 03:05:49;;;;;;;9.33;7.03;;;16.10;99.90;;;;;;5033855;28;20226;-62
2021/07/22 03:08:15;;;;;;;10.90;6.97;;;16.10;1.00;;;;;;5033749;28;20233;-62
2021/07/22 03:10:42;;;;;;;9.20;6.87;;;16.10;1.00;;;;;;5033695;28;20695;-62
2021/07/22 03:13:09;;;;;;;12.77;7.70;;;16.00;1.00;;;;;;5033415;28;20667;-62
2021/07/22 03:15:36;;;;;;;9.80;7.77;;;16.00;1.00;;;;;;5033701;28;20206;-62
2021/07/22 03:18:02;;;;;;;13.53;8.03;;;16.00;1.00;;;;;;5033597;28;20630;-62
2021/07/22 03:20:31;;;;;;;12.23;7.50;;;15.90;1.00;;;;;;5033658;28;20202;-62
2021/07/22 03:23:01;;;;;;;11.87;7.33;;;15.90;1.00;;;;;;5033439;28;20206;-62
2021/07/22 03:25:27;;;;;;;11.77;7.70;;;15.90;1.00;;;;;;5033264;28;20264;-62
2021/07/22 03:27:59;;;;;;;9.93;7.30;;;15.80;1.00;;;;;;5033599;28;20599;-62
2021/07/22 03:30:26;;;;;;;12.97;8.10;;;15.70;1.00;;;;;;5033374;28;20645;-62
2021/07/22 03:32:52;;;;;;;9.30;7.57;;;15.70;1.00;;;;;;5033589;28;20211;-62
2021/07/22 03:35:19;;;;;;;10.33;7.37;;;15.70;1.00;;;;;;5033218;28;20206;-62
2021/07/22 03:37:47;;;;;;;10.43;7.47;;;15.70;1.00;;;;;;5033187;28;20226;-63
2021/07/22 03:40:14;;;;;;;9.77;7.53;;;15.60;1.00;;;;;;5033072;28;20207;-62
2021/07/22 03:42:41;;;;;;;11.07;7.40;;;15.60;1.00;;;;;;5033407;28;20261;-62
2021/07/22 03:45:08;;;;;;;10.57;7.50;;;15.60;1.00;;;;;;5032981;28;20242;-62
2021/07/22 03:47:34;;;;;;;12.80;8.10;;;15.60;1.00;;;;;;5033013;28;20246;-62
2021/07/22 03:50:02;;;;;;;10.50;7.80;;;15.60;1.00;;;;;;5033105;28;20202;-62
2021/07/22 03:52:29;;;;;;;11.17;7.80;;;15.60;1.00;;;;;;5032950;28;20830;-62
2021/07/22 03:54:57;;;;;;;11.87;7.70;;;15.60;1.00;;;;;;5032660;28;20268;-61
2021/07/22 03:57:23;;;;;;;11.80;8.10;;;15.60;1.00;;;;;;5032815;28;20210;-62
2021/07/22 03:59:50;;;;;;;13.17;8.43;;;15.60;1.00;;;;;;5033067;28;20263;-62
2021/07/22 04:02:17;;;;;;;11.63;7.50;;;15.60;1.00;;;;;;5032661;28;20211;-62
2021/07/22 04:04:43;;;;;;;11.40;8.20;;;15.60;1.00;;;;;;5031975;28;20272;-62
2021/07/22 04:07:10;;;;;;;10.83;7.33;;;15.60;1.00;;;;;;5032517;28;20226;-62
2021/07/22 04:09:36;;;;;;;13.40;7.73;;;15.60;1.00;;;;;;5032512;28;20768;-62
2021/07/22 04:12:05;;;;;;;11.20;8.00;;;15.70;1.00;;;;;;5032401;28;20202;-62
2021/07/22 04:14:32;;;;;;;10.17;7.80;;;15.70;1.00;;;;;;5032591;28;20264;-62
2021/07/22 04:16:58;;;;;;;12.27;8.33;;;15.70;1.00;;;;;;5032627;28;20210;-62
2021/07/22 04:19:25;;;;;;;12.50;8.07;;;15.70;1.00;;;;;;5030670;28;20242;-62
2021/07/22 04:21:52;;;;;;;10.77;7.80;;;15.80;1.00;;;;;;5015194;28;20263;-62
2021/07/22 04:24:19;;;;;;;10.50;8.10;;;15.80;1.00;;;;;;5017760;28;20694;-62
2021/07/22 04:26:45;;;;;;;10.07;7.90;;;15.80;1.00;;;;;;5029051;28;20227;-63
2021/07/22 04:29:13;;;;;;;16.03;8.33;;;15.90;1.00;;;;;;5030293;28;20252;-62
2021/07/22 04:31:40;;;;;;;11.70;8.40;;;15.90;1.00;;;;;;5032394;28;20264;-62
2021/07/22 04:34:06;;;;;;;12.20;7.60;;;16.00;1.00;;;;;;5031896;28;20210;-62
2021/07/22 04:36:33;;;;;;;11.10;8.60;;;16.00;1.00;;;;;;5031772;28;20671;-62
2021/07/22 04:39:05;;;;;;;10.70;7.83;;;16.10;1.00;;;;;;5031918;28;20238;-62
2021/07/22 04:41:32;;;;;;;12.30;8.70;;;16.10;1.00;;;;;;5031946;28;20671;-62
2021/07/22 04:43:58;;;;;;;12.17;7.70;;;16.20;1.00;;;;;;5031808;28;20749;-62
2021/07/22 04:46:26;;;;;;;12.10;8.57;;;16.20;1.00;;;;;;5031911;28;20230;-62
2021/07/22 04:48:53;;;;;;;11.93;8.00;;;16.30;1.00;;;;;;5031592;28;20276;-62
2021/07/22 04:51:20;;;;;;;12.80;8.30;;;16.40;1.00;;;;;;5031940;28;20214;-62
2021/07/22 04:53:46;;;;;;;11.63;8.40;;;16.40;1.00;;;;;;5031553;28;20206;-62
2021/07/22 04:56:13;;;;;;;11.57;8.20;;;16.50;1.00;;;;;;5031927;28;20213;-62
2021/07/22 04:58:39;;;;;;;12.23;8.17;;;16.60;1.00;;;;;;5031874;28;20226;-62
2021/07/22 05:01:06;;;;;;;13.23;8.90;;;16.60;1.00;;;;;;5031740;28;20210;-62
2021/07/22 05:03:34;;;;;;;13.43;9.23;;;16.70;1.00;;;;;;5031544;28;20206;-61
2021/07/22 05:06:01;;;;;;;12.37;8.50;;;16.80;1.00;;;;;;5031943;28;20222;-62
2021/07/22 05:08:27;;;;;;;11.00;8.27;;;16.90;1.00;;;;;;5031817;28;20226;-62
2021/07/22 05:10:57;;;;;;;12.43;8.40;;;16.90;1.00;;;;;;5031800;28;20218;-65
2021/07/22 05:13:24;;;;;;;12.13;8.47;;;17.00;1.00;;;;;;5032061;28;20206;-64
2021/07/22 05:15:50;;;;;;;10.70;8.03;;;17.10;1.00;;;;;;5033564;28;20728;-65
2021/07/22 05:18:17;;;;;;;12.13;8.60;;;17.20;1.00;;;;;;5025476;28;20231;-65
2021/07/22 05:20:45;;;;;;;16.43;8.10;;;17.40;1.00;;;;;;5016694;28;20207;-63
2021/07/22 05:23:11;;;;;;;12.63;7.50;;;17.60;1.00;;;;;;5016219;28;20203;-64
2021/07/22 05:25:38;;;;;;;12.77;8.23;;;17.70;1.00;;;;;;5019352;28;20209;-64
2021/07/22 05:28:05;;;;;;;10.73;7.83;;;17.80;1.00;;;;;;5034901;28;20372;-64
2021/07/22 05:30:32;;;;;;;11.07;7.70;;;17.90;1.00;;;;;;5035276;28;20237;-63
2021/07/22 05:32:58;;;;;;;11.67;7.47;;;18.10;1.00;;;;;;5035011;28;20210;-63
2021/07/22 05:35:25;;;;;;;12.03;8.03;;;18.30;1.00;;;;;;5020279;28;20265;-64
2021/07/22 05:37:54;;;;;;;14.60;7.60;;;18.40;1.00;;;;;;5018470;28;20722;-63
2021/07/22 05:40:21;;;;;;;10.60;7.50;;;18.40;1.00;;;;;;5034448;28;20207;-64
2021/07/22 05:42:49;;;;;;;13.70;7.57;;;18.40;1.00;;;;;;5034880;28;20214;-64
2021/07/22 05:45:15;;;;;;;13.47;7.40;;;18.50;1.00;;;;;;5034568;28;20217;-65
2021/07/22 05:47:42;;;;;;;11.97;8.30;;;18.50;1.00;;;;;;5034413;28;20258;-64
2021/07/22 05:50:09;;;;;;;11.87;7.30;;;18.50;1.00;;;;;;5034994;28;20214;-65
2021/07/22 05:52:36;;;;;;;12.60;8.03;;;18.50;1.00;;;;;;5024048;28;20269;-64
2021/07/22 05:55:04;;;;;;;11.17;7.70;;;18.40;1.00;;;;;;5015055;28;20203;-65
2021/07/22 05:57:32;;;;;;;13.73;8.27;;;18.50;1.00;;;;;;5014646;28;20257;-65
2021/07/22 05:59:59;;;;;;;11.97;7.80;;;18.50;1.00;;;;;;5030571;28;20217;-64
2021/07/22 06:02:25;;;;;;;12.27;8.50;;;18.50;1.00;;;;;;5034612;28;20260;-65
2021/07/22 06:04:52;;;;;;;12.53;8.07;;;18.30;99.90;;;;;;5034720;28;20256;-65
2021/07/22 06:07:18;;;;;;;12.47;8.03;;;18.30;99.90;;;;;;5034132;28;20230;-64
2021/07/22 06:09:45;;;;;;;12.30;7.83;;;18.40;1.00;;;;;;5033609;28;20206;-63
2021/07/22 06:12:13;;;;;;;10.40;7.90;;;18.50;1.00;;;;;;5034221;28;20687;-62
2021/07/22 06:14:40;;;;;;;10.73;7.33;;;18.60;1.00;;;;;;5034301;28;20773;-63
2021/07/22 06:17:06;;;;;;;10.83;7.37;;;18.60;1.00;;;;;;5034274;28;20634;-63
2021/07/22 06:19:33;;;;;;;10.73;7.90;;;18.70;1.00;;;;;;5034250;28;20231;-63
2021/07/22 06:22:00;;;;;;;11.57;7.90;;;18.70;1.00;;;;;;5034334;28;20213;-64
2021/07/22 06:24:26;;;;;;;12.00;8.27;;;18.70;1.00;;;;;;5034283;28;20268;-64
2021/07/22 06:26:53;;;;;;;11.47;7.90;;;18.60;1.00;;;;;;5033740;28;20643;-64
2021/07/22 06:29:21;;;;;;;12.17;7.93;;;18.70;99.90;;;;;;5034864;28;20238;-62
2021/07/22 06:31:47;;;;;;;11.57;8.13;;;18.70;99.90;;;;;;5035237;28;20276;-63
2021/07/22 06:34:14;;;;;;;11.10;7.20;;;18.70;99.90;;;;;;5034613;28;20206;-64
2021/07/22 06:36:41;;;;;;;11.07;8.03;;;18.80;99.90;;;;;;5033763;28;20202;-64
2021/07/22 06:39:07;;;;;;;18.63;8.30;;;18.90;99.90;;;;;;5033785;28;20687;-63
2021/07/22 06:41:34;;;;;;;9.67;7.53;;;19.10;99.90;;;;;;5033609;28;20203;-64
2021/07/22 06:44:00;;;;;;;11.40;7.60;;;19.30;99.90;;;;;;5033985;28;20202;-64
2021/07/22 06:46:28;;;;;;;10.57;7.87;;;19.50;99.90;;;;;;5033732;28;20222;-61
2021/07/22 06:48:57;;;;;;;12.77;8.37;;;19.60;99.90;;;;;;5033707;28;20616;-62
2021/07/22 06:51:24;;;;;;;11.63;7.73;;;19.60;99.90;;;;;;5033682;28;20210;-64
2021/07/22 06:53:52;;;;;;;11.60;7.97;;;19.70;99.90;;;;;;5033392;28;20711;-64
2021/07/22 06:56:19;;;;;;;10.60;7.63;;;19.70;99.90;;;;;;5033694;28;20210;-64
2021/07/22 06:58:46;;;;;;;15.00;7.90;;;19.70;99.90;;;;;;5033612;28;20230;-65
2021/07/22 07:01:13;;;;;;;12.00;7.60;;;19.80;99.90;;;;;;5023766;28;20203;-64
2021/07/22 07:03:41;;;;;;;12.83;7.57;;;19.80;99.90;;;;;;5013700;28;20211;-63
2021/07/22 07:06:07;;;;;;;11.63;7.67;;;19.90;99.90;;;;;;5013716;28;20261;-64
2021/07/22 07:08:34;;;;;;;12.17;8.23;;;19.90;99.90;;;;;;5013343;28;20258;-63
2021/07/22 07:11:01;;;;;;;15.33;8.37;;;19.90;99.90;;;;;;5013630;28;20210;-63
2021/07/22 07:13:27;;;;;;;13.07;7.77;;;20.10;99.90;;;;;;5017556;28;20207;-63
2021/07/22 07:15:54;;;;;;;12.87;7.80;;;20.20;99.90;;;;;;5026916;28;20257;-63
2021/07/22 07:18:21;;;;;;;12.00;8.20;;;20.30;99.90;;;;;;5033057;28;20229;-64
2021/07/22 07:20:48;;;;;;;11.87;8.13;;;20.40;99.90;;;;;;5033060;28;20264;-65
2021/07/22 07:23:15;;;;;;;10.57;8.00;;;20.50;99.90;;;;;;5033082;28;20675;-65
2021/07/22 07:25:42;;;;;;;10.27;7.80;;;20.70;99.90;;;;;;5032585;28;20252;-66
2021/07/22 07:28:08;;;;;;;14.53;8.67;;;20.80;99.90;;;;;;5032858;28;20229;-64
2021/07/22 07:30:35;;;;;;;12.40;7.57;;;21.00;99.90;;;;;;5033171;28;20210;-63
2021/07/22 07:33:01;;;;;;;10.67;7.77;;;21.20;1.00;;;;;;5033004;28;20241;-62
2021/07/22 07:35:28;;;;;;;12.57;8.00;;;21.20;99.90;;;;;;5032643;28;20210;-63
2021/07/22 07:37:56;;;;;;;10.23;7.77;;;21.40;99.90;;;;;;5031609;28;20226;-62
2021/07/22 07:40:23;;;;;;;19.63;9.80;;;21.60;99.90;;;;;;5016388;28;20211;-60
2021/07/22 07:42:50;;;;;;;33.27;13.37;;;21.90;1.00;;;;;;5013217;28;20627;-59
2021/07/22 07:45:17;;;;;;;11.70;8.30;;;22.10;1.00;;;;;;5012703;28;20211;-61
2021/07/22 07:47:45;;;;;;;14.30;8.30;;;22.20;99.90;;;;;;5012534;28;20700;-63
2021/07/22 07:50:12;;;;;;;13.07;7.87;;;22.40;99.90;;;;;;5031362;28;20214;-63
2021/07/22 07:52:39;;;;;;;12.63;7.73;;;22.30;99.90;;;;;;5032599;28;20569;-62
2021/07/22 07:55:09;;;;;;;16.60;8.27;;;22.30;99.90;;;;;;5032409;28;20264;-62
2021/07/22 07:57:36;;;;;;;33.53;11.17;;;22.10;99.90;;;;;;5032434;28;20226;-62
2021/07/22 08:00:03;;;;;;;56.90;17.40;;;22.10;99.90;;;;;;5032469;28;20206;-63
2021/07/22 08:02:30;;;;;;;13.40;8.47;;;22.30;99.90;;;;;;5032202;28;20202;-62
2021/07/22 08:04:57;;;;;;;12.73;8.30;;;22.70;99.90;;;;;;5031794;28;20210;-63
2021/07/22 08:07:24;;;;;;;14.73;8.13;;;22.80;99.90;;;;;;5031918;28;20317;-65
2021/07/22 08:09:56;;;;;;;12.47;7.50;;;23.00;99.90;;;;;;5032727;28;20645;-64
2021/07/22 08:12:26;;;;;;;23.87;9.70;;;23.10;99.90;;;;;;5032386;28;20264;-64
2021/07/22 08:14:53;;;;;;;9.40;7.00;;;23.10;99.90;;;;;;5031919;28;20206;-63
2021/07/22 08:17:22;;;;;;;13.00;8.37;;;23.00;99.90;;;;;;5031504;28;20650;-64
2021/07/22 08:19:49;;;;;;;44.07;19.80;;;22.70;99.90;;;;;;5031874;28;20214;-65
2021/07/22 08:22:15;;;;;;;24.20;10.27;;;22.70;99.90;;;;;;5032130;28;20210;-59
2021/07/22 08:24:42;;;;;;;21.60;11.33;;;22.70;99.90;;;;;;5031886;28;20206;-64
2021/07/22 08:27:08;;;;;;;13.47;8.20;;;22.80;99.90;;;;;;5031790;28;20269;-62
2021/07/22 08:29:40;;;;;;;14.33;8.57;;;22.90;99.90;;;;;;5031716;28;20768;-61
2021/07/22 08:32:08;;;;;;;11.27;7.80;;;23.10;99.90;;;;;;5031725;28;20218;-63
2021/07/22 08:34:34;;;;;;;15.30;8.00;;;23.10;99.90;;;;;;5031186;28;20261;-63
2021/07/22 08:37:08;;;;;;;11.43;8.33;;;23.00;99.90;;;;;;5031379;28;20249;-63
2021/07/22 08:39:37;;;;;;;13.87;8.13;;;22.80;99.90;;;;;;5031704;28;20222;-64
2021/07/22 08:42:05;;;;;;;11.63;8.10;;;22.60;99.90;;;;;;5031979;28;20264;-63
2021/07/22 08:44:32;;;;;;;15.17;7.90;;;22.60;99.90;;;;;;5031483;28;20749;-62
2021/07/22 08:47:02;;;;;;;14.33;8.30;;;22.80;99.90;;;;;;5031395;28;20259;-62
2021/07/22 08:49:29;;;;;;;12.40;8.33;;;23.00;99.90;;;;;;5031388;28;20234;-59
2021/07/22 08:51:59;;;;;;;12.53;8.37;;;23.20;99.90;;;;;;5031081;28;20256;-63
2021/07/22 08:54:26;;;;;;;15.87;9.13;;;23.30;99.90;;;;;;5031571;28;20583;-59
2021/07/22 08:56:53;;;;;;;12.43;8.50;;;23.50;99.90;;;;;;5011176;28;20265;-63
2021/07/22 08:59:23;;;;;;;13.33;8.53;;;23.40;99.90;;;;;;5027040;28;20605;-64
2021/07/22 09:01:52;;;;;;;13.63;8.67;;;23.30;99.90;;;;;;5031391;28;20261;-63
2021/07/22 09:04:20;;;;;;;11.90;8.40;;;23.30;99.90;;;;;;5028369;28;20207;-63
2021/07/22 09:06:47;;;;;;;15.20;9.03;;;23.20;99.90;;;;;;5011537;28;20277;-64
2021/07/22 09:09:15;;;;;;;13.60;8.50;;;23.00;99.90;;;;;;5011776;28;20234;-63
2021/07/22 09:11:56;;;;;;;11.40;8.07;;;23.10;99.90;;;;;;5011597;28;20219;-64
2021/07/22 09:14:24;;;;;;;15.40;7.97;;;23.30;99.90;;;;;;5011738;28;20211;-65
2021/07/22 09:16:51;;;;;;;12.93;8.10;;;23.50;99.90;;;;;;5011813;28;20210;-65
2021/07/22 09:19:39;;;;;;;12.00;8.57;;;23.60;99.90;;;;;;5011593;28;20584;-65
2021/07/22 09:22:07;;;;;;;12.73;9.03;;;23.60;99.90;;;;;;5011709;28;20257;-66
2021/07/22 09:24:50;;;;;;;14.93;9.30;;;23.60;99.90;;;;;;5011521;28;20238;-66
2021/07/22 09:27:39;;;;;;;18.97;9.57;;;23.60;99.90;;;;;;5011622;28;20230;-65
2021/07/22 09:30:08;;;;;;;14.97;8.87;;;23.70;99.90;;;;;;5011533;28;20203;-65
2021/07/22 09:32:36;;;;;;;13.63;9.57;;;23.80;99.90;;;;;;5011778;28;20209;-65
2021/07/22 09:35:12;;;;;;;14.53;9.13;;;23.80;99.90;;;;;;5011163;28;20668;-65
2021/07/22 09:37:41;;;;;;;13.93;9.40;;;23.90;99.90;;;;;;5011345;28;20234;-65
2021/07/22 09:40:10;;;;;;;12.07;8.80;;;24.00;99.90;;;;;;5011580;28;20276;-66
2021/07/22 09:42:44;;;;;;;14.43;8.97;;;24.20;99.90;;;;;;5011087;28;20215;-64
2021/07/22 09:45:13;;;;;;;11.87;8.60;;;24.10;99.90;;;;;;5011206;28;20213;-65
2021/07/22 09:47:40;;;;;;;16.10;9.63;;;24.00;99.90;;;;;;5010293;28;20289;-65
2021/07/22 09:50:14;;;;;;;17.77;9.80;;;24.20;99.90;;;;;;5011290;28;20249;-65
2021/07/22 09:52:40;;;;;;;15.47;9.40;;;24.00;99.90;;;;;;5010628;28;20211;-65
2021/07/22 09:55:28;;;;;;;14.33;9.47;;;24.00;99.90;;;;;;5011195;28;20672;-65
2021/07/22 09:57:56;;;;;;;15.17;10.30;;;24.00;99.90;;;;;;5011420;28;20227;-64
2021/07/22 10:00:23;;;;;;;14.57;10.13;;;24.00;99.90;;;;;;5015567;28;20202;-65
2021/07/22 10:02:51;;;;;;;15.87;10.50;;;24.20;99.90;;;;;;5034068;28;20206;-65
2021/07/22 10:05:22;;;;;;;16.40;9.83;;;24.20;99.90;;;;;;5034670;28;20238;-66
2021/07/22 10:07:51;;;;;;;13.17;9.33;;;24.40;99.90;;;;;;5036346;28;20793;-66
2021/07/22 10:10:18;;;;;;;17.10;10.80;;;24.40;99.90;;;;;;5034285;28;20233;-65
2021/07/22 10:12:53;;;;;;;13.60;9.90;;;24.20;99.90;;;;;;5034854;28;20206;-67
2021/07/22 10:15:21;;;;;;;17.70;10.13;;;24.10;99.90;;;;;;5035170;28;20210;-66
2021/07/22 10:17:49;;;;;;;14.70;10.60;;;24.00;99.90;;;;;;5035149;28;20233;-66
2021/07/22 10:20:16;;;;;;;15.97;10.03;;;24.10;99.90;;;;;;5034256;28;20272;-64
2021/07/22 10:22:45;;;;;;;17.30;10.50;;;24.30;99.90;;;;;;5034611;28;20202;-65
2021/07/22 10:25:13;;;;;;;18.87;9.90;;;24.40;99.90;;;;;;5034271;28;20316;-64
2021/07/22 10:27:42;;;;;;;14.00;9.70;;;24.60;99.90;;;;;;5033855;28;20238;-65
2021/07/22 10:30:11;;;;;;;17.13;9.03;;;24.90;99.90;;;;;;5034306;28;20208;-64
2021/07/22 10:32:40;;;;;;;11.93;9.10;;;25.00;99.90;;;;;;5033830;28;20683;-64
2021/07/22 10:35:07;;;;;;;14.00;10.00;;;25.00;99.90;;;;;;5033836;28;20214;-65
2021/07/22 10:37:34;;;;;;;16.00;9.93;;;25.10;99.90;;;;;;5033760;28;20241;-63
2021/07/22 10:40:06;;;;;;;16.03;10.27;;;25.10;99.90;;;;;;5033853;28;20214;-64
2021/07/22 10:42:44;;;;;;;12.43;9.47;;;25.00;99.90;;;;;;5033939;28;20210;-63
2021/07/22 10:45:24;;;;;;;14.53;10.40;;;25.20;99.90;;;;;;5033542;28;20675;-63
2021/07/22 10:48:25;;;;;;;18.57;11.27;;;25.10;99.90;;;;;;5033628;28;20269;-64
2021/07/22 10:51:13;;;;;;;16.80;10.43;;;25.00;99.90;;;;;;5019778;28;20202;-64
2021/07/22 10:53:45;;;;;;;16.07;10.60;;;25.20;99.90;;;;;;5033397;28;20202;-64
2021/07/22 10:56:14;;;;;;;15.93;11.77;;;25.50;99.90;;;;;;5033552;28;20203;-65
2021/07/22 10:58:57;;;;;;;19.37;13.03;;;25.40;99.90;;;;;;5033760;28;20229;-65
2021/07/22 11:01:53;;;;;;;16.33;10.13;;;25.50;99.90;;;;;;5033468;28;20209;-66
2021/07/22 11:04:43;;;;;;;14.50;11.10;;;25.70;99.90;;;;;;5033134;28;20225;-65
2021/07/22 11:07:17;;;;;;;15.43;9.93;;;25.70;99.90;;;;;;5033335;28;20209;-65
2021/07/22 11:09:44;;;;;;;13.30;8.47;;;25.70;99.90;;;;;;5033660;28;20260;-65
2021/07/22 11:12:44;;;;;;;13.47;9.40;;;25.80;99.90;;;;;;5033107;28;20236;-66
2021/07/22 11:15:16;;;;;;;76.73;13.93;;;25.90;99.90;;;;;;5033184;28;20232;-65
2021/07/22 11:17:44;;;;;;;18.03;11.03;;;25.80;99.90;;;;;;5033121;28;20304;-66
2021/07/22 11:20:36;;;;;;;17.67;12.60;;;25.80;99.90;;;;;;5033392;28;20202;-64
2021/07/22 11:23:16;;;;;;;16.93;10.90;;;25.90;99.90;;;;;;5015224;28;20264;-66
2021/07/22 11:25:48;;;;;;;22.23;14.63;;;25.80;99.90;;;;;;5035204;28;20210;-66
2021/07/22 11:28:25;;;;;;;22.90;15.23;;;25.40;99.90;;;;;;5033834;28;20277;-63
2021/07/22 11:31:02;;;;;;;21.40;15.63;;;25.00;99.90;;;;;;5033181;28;20210;-63
2021/07/22 11:33:33;;;;;;;30.53;16.80;;;25.00;99.90;;;;;;5033047;28;20206;-64
2021/07/22 11:36:02;;;;;;;24.10;16.13;;;25.00;99.90;;;;;;5032899;28;20206;-63
2021/07/22 11:38:29;;;;;;;20.53;14.50;;;24.90;99.90;;;;;;5035333;28;20223;-62
2021/07/22 11:40:56;;;;;;;25.83;15.87;;;25.00;99.90;;;;;;5036242;28;20206;-65
2021/07/22 11:43:38;;;;;;;23.17;16.13;;;25.00;99.90;;;;;;5034693;28;20213;-63
2021/07/22 11:46:08;;;;;;;21.47;14.80;;;24.80;99.90;;;;;;5037145;28;20206;-63
2021/07/22 11:48:35;;;;;;;24.90;16.13;;;25.10;99.90;;;;;;5032516;28;20241;-63
2021/07/22 11:51:03;;;;;;;25.40;17.23;;;25.40;99.90;;;;;;5031460;28;20210;-62
2021/07/22 11:53:30;;;;;;;20.60;14.17;;;25.40;99.90;;;;;;5032506;28;20264;-62
2021/07/22 11:55:59;;;;;;;22.70;16.00;;;25.50;99.90;;;;;;5031834;28;20211;-65
2021/07/22 11:58:26;;;;;;;20.77;14.77;;;25.70;99.90;;;;;;5032652;28;20276;-63
2021/07/22 12:00:55;;;;;;;21.80;14.43;;;25.80;99.90;;;;;;5032250;28;20214;-65
2021/07/22 12:03:25;;;;;;;20.47;14.73;;;26.00;99.90;;;;;;5032009;28;20210;-64
2021/07/22 12:05:52;;;;;;;19.53;13.83;;;26.20;99.90;;;;;;5032143;28;20619;-67
2021/07/22 12:08:20;;;;;;;21.67;14.40;;;26.20;99.90;;;;;;5032192;28;20790;-65
2021/07/22 12:10:47;;;;;;;19.50;13.17;;;26.30;99.90;;;;;;5032095;28;20210;-65
2021/07/22 12:13:15;;;;;;;16.70;12.57;;;26.00;99.90;;;;;;5032383;28;20218;-66
2021/07/22 12:15:44;;;;;;;64.23;16.93;;;26.30;99.90;;;;;;5032008;28;20208;-64
2021/07/22 12:18:14;;;;;;;17.70;12.17;;;26.40;99.90;;;;;;5032170;28;20318;-64
2021/07/22 12:20:41;;;;;;;16.87;11.93;;;26.60;99.90;;;;;;5032190;28;20236;-66
2021/07/22 12:23:28;;;;;;;16.97;12.20;;;26.70;99.90;;;;;;5031860;28;20638;-65
2021/07/22 12:25:59;;;;;;;16.83;13.13;;;26.60;99.90;;;;;;5031328;28;20294;-65
2021/07/22 12:28:26;;;;;;;20.33;13.70;;;26.40;99.90;;;;;;5031826;28;20601;-66
2021/07/22 12:30:53;;;;;;;15.43;11.47;;;26.10;99.90;;;;;;5031800;28;20263;-65
2021/07/22 12:33:26;;;;;;;19.93;14.20;;;25.80;99.90;;;;;;5032005;28;20346;-64
2021/07/22 12:35:53;;;;;;;21.00;14.87;;;25.30;99.90;;;;;;5031466;28;20297;-64
2021/07/22 12:38:26;;;;;;;24.73;15.33;;;25.10;99.90;;;;;;5031975;28;20230;-67
2021/07/22 12:41:06;;;;;;;24.17;14.83;;;25.10;99.90;;;;;;5031930;28;20251;-65
2021/07/22 12:43:45;;;;;;;22.27;16.40;;;25.10;99.90;;;;;;5031388;28;20718;-64
2021/07/22 12:46:17;;;;;;;24.37;15.53;;;24.90;99.90;;;;;;5031311;28;20212;-64